»·PEaware :: GTI495 KELP-KSEA

GTI495 :: KELP-KSEA

FLIGHT INFORMATION

Flight Status: Arrived
Operator:
Atlas Air
More flights by this operator :: More flights under this callsign
Pilot: Jone M. (10385)
Aircraft: BOEING 767-300
(B763)
More flights by this aircraft type
Origin: KELP El Paso Intl
United States
Destination: KSEA Seattle-Tacoma Intl
United States
More flights between these airports :: More routes between these airports
Route: ATKNN5 SLNNK ZUN MLF BQU IMB CHINS3
File this flight plan on PilotEdge
Remarks: RMK / SIMBRIEF
Altitude:
(Current/Filed)
34,000ft
Speed:
(Current/Filed)
472kts
Departed: 17-Feb-19 11:17 AM
Arrived: 17-Feb-19 02:20 PM
Distance/Time
Traveled:
1188nm/3:03
Distance/Time
To Go:
Arrived

Flight Plot

Page will automatically refresh every two minutes.

Flight plan parsing failed; only flown route is shown


Map Options




Map Legend


Flown Route
Filed Route
Departure Airport
Arrival Airport
Navaid (VOR, NDB)
Fix

Horizontal Profiles

Position Reports

Time Latitude Longitude Heading Altitude Ground
Speed
17-Feb-19 10:49 31.817572 -106.369963 141 3958ft 0kts
17-Feb-19 10:50 31.817572 -106.369963 141 3958ft 0kts
17-Feb-19 10:51 31.817572 -106.369963 141 3958ft 0kts
17-Feb-19 10:52 31.817572 -106.369963 141 3958ft 0kts
17-Feb-19 10:53 31.817572 -106.369963 141 3958ft 0kts
17-Feb-19 10:54 31.817572 -106.369963 141 3958ft 0kts
17-Feb-19 10:55 31.817572 -106.369963 141 3958ft 0kts
17-Feb-19 10:56 31.817572 -106.369963 141 3958ft 0kts
17-Feb-19 10:57 31.817572 -106.369963 141 3958ft 0kts
17-Feb-19 10:58 31.817572 -106.369963 141 3958ft 0kts
17-Feb-19 10:59 31.817572 -106.369963 141 3958ft 0kts
17-Feb-19 11:00 31.817572 -106.369963 141 3958ft 0kts
17-Feb-19 11:01 31.817572 -106.369963 141 3958ft 0kts
17-Feb-19 11:02 31.817572 -106.369963 141 3958ft 0kts
17-Feb-19 11:03 31.817572 -106.369963 141 3958ft 0kts
17-Feb-19 11:04 31.817572 -106.369963 141 3958ft 0kts
17-Feb-19 11:05 31.817572 -106.369963 141 3958ft 0kts
17-Feb-19 11:06 31.817572 -106.369963 141 3958ft 0kts
17-Feb-19 11:06 31.817472 -106.369892 163 3958ft 2kts
17-Feb-19 11:08 31.816903 -106.370669 235 3957ft 0kts
17-Feb-19 11:09 31.816506 -106.371953 272 3954ft 13kts
17-Feb-19 11:10 31.813562 -106.377765 230 3943ft 35kts
17-Feb-19 11:10 31.808685 -106.384393 229 3936ft 26kts
17-Feb-19 11:11 31.803078 -106.387745 184 3933ft 23kts
17-Feb-19 11:13 31.799918 -106.383950 89 3940ft 21kts
17-Feb-19 11:13 31.799820 -106.376719 94 3948ft 28kts
17-Feb-19 11:14 31.799354 -106.367378 93 3961ft 28kts
17-Feb-19 11:15 31.799493 -106.360258 33 3951ft 19kts
17-Feb-19 11:16 31.801080 -106.368597 273 3959ft 98kts
17-Feb-19 11:17 31.802923 -106.418996 268 4564ft 175kts
17-Feb-19 11:18 31.775235 -106.471128 234 5851ft 210kts
17-Feb-19 11:19 31.780268 -106.537793 302 7450ft 249kts
17-Feb-19 11:20 31.832846 -106.587934 345 10023ft 272kts
17-Feb-19 11:21 31.916637 -106.603756 345 11199ft 341kts
17-Feb-19 11:22 32.016230 -106.622216 339 13591ft 370kts
17-Feb-19 11:23 32.095098 -106.691425 308 16535ft 358kts
17-Feb-19 11:24 32.175075 -106.765510 317 19252ft 378kts
17-Feb-19 11:25 32.263550 -106.834796 315 21757ft 389kts
17-Feb-19 11:26 32.354824 -106.906336 314 24102ft 400kts
17-Feb-19 11:27 32.448584 -106.980001 313 26247ft 411kts
17-Feb-19 11:28 32.544755 -107.055730 312 28360ft 420kts
17-Feb-19 11:29 32.643392 -107.133654 311 30138ft 433kts
17-Feb-19 11:30 32.742352 -107.211869 309 32372ft 424kts
17-Feb-19 11:31 32.839123 -107.288670 308 34035ft 414kts
17-Feb-19 11:32 32.938718 -107.359878 322 33999ft 447kts
17-Feb-19 11:33 33.074450 -107.364098 1 34004ft 539kts
17-Feb-19 11:34 33.219445 -107.319761 353 33990ft 525kts
17-Feb-19 11:35 33.351755 -107.344773 318 33992ft 451kts
17-Feb-19 11:36 33.448011 -107.429004 304 33990ft 423kts
17-Feb-19 11:37 33.534490 -107.521887 303 33988ft 418kts
17-Feb-19 11:38 33.620221 -107.616930 303 33885ft 417kts
17-Feb-19 11:39 33.704937 -107.711593 302 33907ft 415kts
17-Feb-19 11:40 33.789207 -107.806107 302 33905ft 417kts
17-Feb-19 11:41 33.873994 -107.901454 302 33901ft 416kts
17-Feb-19 11:42 33.958274 -107.996523 302 33896ft 415kts
17-Feb-19 11:43 34.042501 -108.091813 302 33877ft 417kts
17-Feb-19 11:44 34.127000 -108.187635 302 33856ft 414kts
17-Feb-19 11:45 34.210983 -108.283213 302 33858ft 416kts
17-Feb-19 11:46 34.295134 -108.379245 302 33864ft 418kts
17-Feb-19 11:47 34.378952 -108.475124 302 33868ft 414kts
17-Feb-19 11:48 34.461713 -108.570107 302 33872ft 415kts
17-Feb-19 11:49 34.543741 -108.664550 302 33896ft 419kts
17-Feb-19 11:50 34.627696 -108.761427 301 33985ft 417kts
17-Feb-19 11:51 34.710149 -108.856873 302 33982ft 415kts
17-Feb-19 11:52 34.793403 -108.953518 302 33979ft 415kts
17-Feb-19 11:53 34.876887 -109.050747 302 33975ft 414kts
17-Feb-19 11:54 34.960730 -109.148786 306 33971ft 425kts
17-Feb-19 11:55 35.051576 -109.246585 311 33972ft 441kts
17-Feb-19 11:56 35.143072 -109.344670 311 33945ft 439kts
17-Feb-19 11:57 35.234843 -109.443505 311 33928ft 440kts
17-Feb-19 11:58 35.326569 -109.542622 311 33931ft 440kts
17-Feb-19 11:59 35.417799 -109.641517 311 33926ft 440kts
17-Feb-19 12:00 35.507735 -109.739316 310 33940ft 439kts
17-Feb-19 12:01 35.598682 -109.838524 310 33938ft 439kts
17-Feb-19 12:02 35.689689 -109.938110 310 33938ft 439kts
17-Feb-19 12:03 35.780879 -110.038217 310 33952ft 439kts
17-Feb-19 12:04 35.871834 -110.138389 310 33962ft 440kts
17-Feb-19 12:05 35.962848 -110.238946 310 33971ft 440kts
17-Feb-19 12:06 36.053897 -110.339869 310 33965ft 440kts
17-Feb-19 12:07 36.144612 -110.440742 310 33960ft 440kts
17-Feb-19 12:08 36.235441 -110.542071 310 33930ft 440kts
17-Feb-19 12:09 36.325872 -110.643290 310 33916ft 440kts
17-Feb-19 12:10 36.416329 -110.744871 310 33930ft 439kts
17-Feb-19 12:11 36.506582 -110.846553 310 33929ft 439kts
17-Feb-19 12:12 36.596565 -110.948268 310 33927ft 437kts
17-Feb-19 12:13 36.686185 -111.049908 310 33926ft 435kts
17-Feb-19 12:14 36.774810 -111.150744 311 33925ft 433kts
17-Feb-19 12:15 36.863826 -111.252357 311 33924ft 433kts
17-Feb-19 12:16 36.952169 -111.353536 311 33923ft 433kts
17-Feb-19 12:17 37.041559 -111.456312 312 33923ft 441kts
17-Feb-19 12:18 37.132372 -111.561015 313 33921ft 449kts
17-Feb-19 12:19 37.223570 -111.666473 312 33917ft 448kts
17-Feb-19 12:20 37.314762 -111.772340 312 33868ft 448kts
17-Feb-19 12:21 37.406117 -111.878765 312 33836ft 448kts
17-Feb-19 12:22 37.496826 -111.984806 312 33835ft 448kts
17-Feb-19 12:23 37.587692 -112.091401 312 33834ft 448kts
17-Feb-19 12:24 37.678493 -112.198294 312 33833ft 448kts
17-Feb-19 12:25 37.769269 -112.305534 312 33833ft 448kts
17-Feb-19 12:26 37.860030 -112.413136 312 33832ft 448kts
17-Feb-19 12:27 37.950436 -112.520698 312 33831ft 448kts
17-Feb-19 12:28 38.041192 -112.629062 312 33840ft 448kts
17-Feb-19 12:29 38.131437 -112.737189 311 33871ft 447kts
17-Feb-19 12:30 38.221576 -112.845588 312 33881ft 446kts
17-Feb-19 12:31 38.311200 -112.953751 312 33881ft 443kts
17-Feb-19 12:32 38.402138 -113.059046 315 33880ft 443kts
17-Feb-19 12:33 38.495409 -113.161140 315 33878ft 442kts
17-Feb-19 12:34 38.588774 -113.263803 315 33879ft 443kts
17-Feb-19 12:35 38.681863 -113.366537 315 33877ft 443kts
17-Feb-19 12:36 38.774879 -113.469573 315 33877ft 443kts
17-Feb-19 12:37 38.867679 -113.572735 315 33875ft 443kts
17-Feb-19 12:38 38.958159 -113.673713 315 33886ft 451kts
17-Feb-19 12:39 39.050254 -113.776812 316 33883ft 459kts
17-Feb-19 12:40 39.146803 -113.885265 316 33878ft 458kts
17-Feb-19 12:41 39.241099 -113.991615 316 33872ft 458kts
17-Feb-19 12:42 39.335996 -114.099047 316 33871ft 458kts
17-Feb-19 12:43 39.430697 -114.206663 316 33871ft 458kts
17-Feb-19 12:44 39.526110 -114.315494 316 33869ft 457kts
17-Feb-19 12:45 39.620032 -114.423037 316 33868ft 458kts
17-Feb-19 12:46 39.714632 -114.531766 316 33869ft 458kts
17-Feb-19 12:47 39.809028 -114.640679 316 33870ft 458kts
17-Feb-19 12:48 39.903770 -114.750399 315 33873ft 457kts
17-Feb-19 12:49 39.998466 -114.860492 315 33872ft 458kts
17-Feb-19 12:50 40.093343 -114.971228 315 33873ft 458kts
17-Feb-19 12:51 40.186236 -115.080080 316 33888ft 454kts
17-Feb-19 12:52 40.278102 -115.188134 316 33906ft 451kts
17-Feb-19 12:53 40.370883 -115.297671 316 33908ft 451kts
17-Feb-19 12:54 40.462536 -115.406299 316 33906ft 451kts
17-Feb-19 12:56 40.553327 -115.514321 316 33905ft 451kts
17-Feb-19 12:57 40.643126 -115.621571 316 33905ft 451kts
17-Feb-19 12:58 40.734856 -115.731545 315 33909ft 451kts
17-Feb-19 12:59 40.834175 -115.831389 322 33908ft 453kts
17-Feb-19 13:00 40.935744 -115.927214 322 33907ft 453kts
17-Feb-19 13:01 41.036934 -116.023059 323 33907ft 456kts
17-Feb-19 13:02 41.133960 -116.115283 323 33909ft 461kts
17-Feb-19 13:03 41.235063 -116.211726 323 33908ft 460kts
17-Feb-19 13:04 41.338130 -116.310447 323 33908ft 461kts
17-Feb-19 13:05 41.438574 -116.407038 323 33907ft 460kts
17-Feb-19 13:06 41.541352 -116.506268 323 33912ft 460kts
17-Feb-19 13:07 41.642732 -116.604536 323 33926ft 460kts
17-Feb-19 13:08 41.743358 -116.702459 323 33936ft 460kts
17-Feb-19 13:09 41.845156 -116.801917 323 33945ft 460kts
17-Feb-19 13:10 41.947016 -116.901840 323 33972ft 459kts
17-Feb-19 13:11 42.047578 -117.000892 323 33970ft 455kts
17-Feb-19 13:12 42.148862 -117.101057 323 33973ft 452kts
17-Feb-19 13:13 42.249757 -117.201232 323 33973ft 452kts
17-Feb-19 13:13 42.333704 -117.284896 323 33972ft 451kts
17-Feb-19 13:14 42.433489 -117.384730 323 33971ft 452kts
17-Feb-19 13:15 42.534113 -117.485787 323 33971ft 452kts
17-Feb-19 13:16 42.634352 -117.586883 323 33970ft 452kts
17-Feb-19 13:18 42.750242 -117.704279 323 33972ft 452kts
17-Feb-19 13:18 42.834643 -117.790136 323 33971ft 452kts
17-Feb-19 13:19 42.934584 -117.892212 323 33970ft 451kts
17-Feb-19 13:20 43.033490 -117.993641 324 33969ft 453kts
17-Feb-19 13:21 43.133735 -118.096829 324 33975ft 453kts
17-Feb-19 13:22 43.233358 -118.199826 324 33982ft 453kts
17-Feb-19 13:23 43.332427 -118.302687 324 33989ft 454kts
17-Feb-19 13:24 43.430854 -118.405309 324 33991ft 453kts
17-Feb-19 13:25 43.530140 -118.509270 324 33990ft 453kts
17-Feb-19 13:26 43.629566 -118.613823 324 33990ft 454kts
17-Feb-19 13:27 43.724042 -118.713573 324 33989ft 454kts
17-Feb-19 13:28 43.824300 -118.819878 324 33989ft 454kts
17-Feb-19 13:29 43.923646 -118.925697 324 34007ft 450kts
17-Feb-19 13:30 44.021288 -119.030130 325 34032ft 447kts
17-Feb-19 13:31 44.117882 -119.133865 325 34040ft 447kts
17-Feb-19 13:32 44.215606 -119.239269 325 34039ft 446kts
17-Feb-19 13:33 44.310449 -119.342005 325 34038ft 446kts
17-Feb-19 13:34 44.407184 -119.447238 325 34037ft 446kts
17-Feb-19 13:35 44.499424 -119.548005 325 34036ft 446kts
17-Feb-19 13:36 44.596474 -119.654473 324 34035ft 446kts
17-Feb-19 13:37 44.704516 -119.720341 354 34041ft 438kts
17-Feb-19 13:38 44.825868 -119.737773 354 34033ft 438kts
17-Feb-19 13:39 44.944782 -119.755291 354 34032ft 437kts
17-Feb-19 13:40 45.064850 -119.773118 355 34090ft 433kts
17-Feb-19 13:41 45.183341 -119.790759 355 34164ft 431kts
17-Feb-19 13:42 45.302317 -119.808552 355 34162ft 431kts
17-Feb-19 13:43 45.420219 -119.826268 355 34162ft 431kts
17-Feb-19 13:44 45.538023 -119.844040 355 34159ft 430kts
17-Feb-19 13:45 45.657133 -119.862082 355 34079ft 431kts
17-Feb-19 13:46 45.774310 -119.879908 355 34081ft 431kts
17-Feb-19 13:47 45.893395 -119.898110 355 34080ft 431kts
17-Feb-19 13:48 46.009871 -119.915989 355 34085ft 432kts
17-Feb-19 13:49 46.126228 -119.933918 355 34094ft 431kts
17-Feb-19 13:50 46.242754 -119.953433 349 32370ft 428kts
17-Feb-19 13:51 46.337228 -120.036791 315 30746ft 448kts
17-Feb-19 13:52 46.413849 -120.168776 314 29000ft 435kts
17-Feb-19 13:53 46.487729 -120.298605 313 27246ft 423kts
17-Feb-19 13:54 46.562596 -120.431086 313 25409ft 412kts
17-Feb-19 13:55 46.627688 -120.564586 309 23614ft 402kts
17-Feb-19 13:56 46.690647 -120.696761 308 21800ft 392kts
17-Feb-19 13:57 46.751771 -120.825649 307 19984ft 382kts
17-Feb-19 13:58 46.810431 -120.949888 307 18250ft 372kts
17-Feb-19 13:59 46.868618 -121.073678 307 16631ft 366kts
17-Feb-19 14:00 46.923091 -121.190104 306 15071ft 352kts
17-Feb-19 14:01 46.976762 -121.305291 306 13447ft 334kts
17-Feb-19 14:02 47.027704 -121.415071 307 11990ft 315kts
17-Feb-19 14:03 47.072891 -121.512801 307 11982ft 280kts
17-Feb-19 14:04 47.113718 -121.601381 307 11988ft 280kts
17-Feb-19 14:05 47.156699 -121.694981 306 11990ft 280kts
17-Feb-19 14:06 47.200284 -121.790205 306 11815ft 285kts
17-Feb-19 14:07 47.243212 -121.884330 306 10583ft 276kts
17-Feb-19 14:08 47.250548 -121.989571 265 9209ft 281kts
17-Feb-19 14:09 47.240902 -122.099536 265 6904ft 271kts
17-Feb-19 14:10 47.226080 -122.204323 229 6013ft 270kts
17-Feb-19 14:11 47.155303 -122.230780 185 5994ft 274kts
17-Feb-19 14:12 47.106889 -122.295336 279 6013ft 266kts
17-Feb-19 14:13 47.164129 -122.324449 11 5838ft 265kts
17-Feb-19 14:14 47.236089 -122.313944 1 4418ft 254kts
17-Feb-19 14:15 47.300032 -122.312358 0 3177ft 229kts
17-Feb-19 14:16 47.360663 -122.311806 359 1964ft 197kts
17-Feb-19 14:17 47.402241 -122.311473 359 1144ft 142kts
17-Feb-19 14:18 47.434742 -122.311259 359 527ft 142kts
17-Feb-19 14:19 47.456566 -122.310935 0 438ft 29kts
17-Feb-19 14:20 47.459705 -122.308872 45 438ft 10kts
17-Feb-19 14:21 47.461659 -122.306176 0 438ft 15kts
17-Feb-19 14:22 47.462208 -122.302760 357 438ft 5kts
17-Feb-19 14:23 47.462666 -122.302758 0 438ft 0kts
17-Feb-19 14:24 47.462666 -122.302758 0 438ft 0kts
17-Feb-19 14:25 47.462666 -122.302758 0 438ft 0kts

Navigation Log

Ident Type
Flight plan parsing failed, navigation log unavailable